sensor_id;sensor_type;location;lat;lon;timestamp;P1;durP1;ratioP1;P2;durP2;ratioP2
25231;SDS011;13176;51.140;6.290;2022-11-27T00:01:12;18.58;;;11.52;;
25231;SDS011;13176;51.140;6.290;2022-11-27T00:03:41;13.68;;;11.55;;
25231;SDS011;13176;51.140;6.290;2022-11-27T00:06:15;13.00;;;11.63;;
25231;SDS011;13176;51.140;6.290;2022-11-27T00:08:44;13.85;;;12.30;;
25231;SDS011;13176;51.140;6.290;2022-11-27T00:11:13;16.27;;;11.85;;
25231;SDS011;13176;51.140;6.290;2022-11-27T00:13:44;14.77;;;11.60;;
25231;SDS011;13176;51.140;6.290;2022-11-27T00:16:14;13.13;;;11.82;;
25231;SDS011;13176;51.140;6.290;2022-11-27T00:18:41;12.40;;;11.25;;
25231;SDS011;13176;51.140;6.290;2022-11-27T00:21:18;12.63;;;11.40;;
25231;SDS011;13176;51.140;6.290;2022-11-27T00:23:47;12.38;;;11.02;;
25231;SDS011;13176;51.140;6.290;2022-11-27T00:26:14;11.23;;;10.35;;
25231;SDS011;13176;51.140;6.290;2022-11-27T00:28:41;13.15;;;11.88;;
25231;SDS011;13176;51.140;6.290;2022-11-27T00:31:12;11.82;;;10.35;;
25231;SDS011;13176;51.140;6.290;2022-11-27T00:33:41;13.98;;;10.60;;
25231;SDS011;13176;51.140;6.290;2022-11-27T00:36:08;11.35;;;10.35;;
25231;SDS011;13176;51.140;6.290;2022-11-27T00:38:35;13.07;;;11.05;;
25231;SDS011;13176;51.140;6.290;2022-11-27T00:41:08;12.27;;;11.10;;
25231;SDS011;13176;51.140;6.290;2022-11-27T00:43:40;13.45;;;11.23;;
25231;SDS011;13176;51.140;6.290;2022-11-27T00:46:12;12.57;;;11.18;;
25231;SDS011;13176;51.140;6.290;2022-11-27T00:48:39;11.70;;;10.20;;
25231;SDS011;13176;51.140;6.290;2022-11-27T00:51:07;12.00;;;10.80;;
25231;SDS011;13176;51.140;6.290;2022-11-27T00:53:35;12.52;;;11.23;;
25231;SDS011;13176;51.140;6.290;2022-11-27T00:56:02;16.55;;;11.48;;
25231;SDS011;13176;51.140;6.290;2022-11-27T00:58:29;14.35;;;10.40;;
25231;SDS011;13176;51.140;6.290;2022-11-27T01:01:00;13.13;;;11.93;;
25231;SDS011;13176;51.140;6.290;2022-11-27T01:03:28;21.10;;;10.98;;
25231;SDS011;13176;51.140;6.290;2022-11-27T01:05:56;12.43;;;9.80;;
25231;SDS011;13176;51.140;6.290;2022-11-27T01:08:27;13.43;;;10.77;;
25231;SDS011;13176;51.140;6.290;2022-11-27T01:10:54;11.05;;;9.82;;
25231;SDS011;13176;51.140;6.290;2022-11-27T01:13:22;12.90;;;9.68;;
25231;SDS011;13176;51.140;6.290;2022-11-27T01:16:01;14.13;;;9.88;;
25231;SDS011;13176;51.140;6.290;2022-11-27T01:18:37;11.55;;;10.38;;
25231;SDS011;13176;51.140;6.290;2022-11-27T01:21:06;16.55;;;10.30;;
25231;SDS011;13176;51.140;6.290;2022-11-27T01:23:33;12.70;;;10.05;;
25231;SDS011;13176;51.140;6.290;2022-11-27T01:26:00;13.40;;;10.32;;
25231;SDS011;13176;51.140;6.290;2022-11-27T01:28:31;12.45;;;10.43;;
25231;SDS011;13176;51.140;6.290;2022-11-27T01:30:58;12.27;;;10.45;;
25231;SDS011;13176;51.140;6.290;2022-11-27T01:33:32;10.52;;;9.52;;
25231;SDS011;13176;51.140;6.290;2022-11-27T01:36:00;13.63;;;10.32;;
25231;SDS011;13176;51.140;6.290;2022-11-27T01:38:29;15.57;;;11.18;;
25231;SDS011;13176;51.140;6.290;2022-11-27T01:41:04;12.48;;;10.00;;
25231;SDS011;13176;51.140;6.290;2022-11-27T01:48:51;11.80;;;10.10;;
25231;SDS011;13176;51.140;6.290;2022-11-27T01:51:20;12.43;;;11.13;;
25231;SDS011;13176;51.140;6.290;2022-11-27T01:53:48;12.55;;;11.27;;
25231;SDS011;13176;51.140;6.290;2022-11-27T01:56:20;13.00;;;10.05;;
25231;SDS011;13176;51.140;6.290;2022-11-27T01:58:52;15.02;;;10.02;;
25231;SDS011;13176;51.140;6.290;2022-11-27T02:01:19;11.43;;;10.20;;
25231;SDS011;13176;51.140;6.290;2022-11-27T02:03:49;11.02;;;9.98;;
25231;SDS011;13176;51.140;6.290;2022-11-27T02:06:16;11.80;;;10.70;;
25231;SDS011;13176;51.140;6.290;2022-11-27T02:08:42;14.40;;;10.23;;
25231;SDS011;13176;51.140;6.290;2022-11-27T02:11:13;14.68;;;11.57;;
25231;SDS011;13176;51.140;6.290;2022-11-27T02:16:50;11.43;;;10.35;;
25231;SDS011;13176;51.140;6.290;2022-11-27T02:19:26;12.43;;;10.98;;
25231;SDS011;13176;51.140;6.290;2022-11-27T02:22:28;11.48;;;10.45;;
25231;SDS011;13176;51.140;6.290;2022-11-27T02:30:47;12.15;;;10.68;;
25231;SDS011;13176;51.140;6.290;2022-11-27T02:33:20;12.57;;;11.40;;
25231;SDS011;13176;51.140;6.290;2022-11-27T02:35:48;15.73;;;11.48;;
25231;SDS011;13176;51.140;6.290;2022-11-27T02:38:39;15.05;;;10.77;;
25231;SDS011;13176;51.140;6.290;2022-11-27T02:41:24;12.25;;;11.05;;
25231;SDS011;13176;51.140;6.290;2022-11-27T02:43:55;14.27;;;11.27;;
25231;SDS011;13176;51.140;6.290;2022-11-27T02:46:23;11.85;;;10.90;;
25231;SDS011;13176;51.140;6.290;2022-11-27T02:49:12;11.98;;;11.07;;
25231;SDS011;13176;51.140;6.290;2022-11-27T02:51:44;13.65;;;11.98;;
25231;SDS011;13176;51.140;6.290;2022-11-27T02:54:25;12.70;;;11.60;;
25231;SDS011;13176;51.140;6.290;2022-11-27T02:56:53;15.13;;;11.65;;
25231;SDS011;13176;51.140;6.290;2022-11-27T02:59:23;13.38;;;12.02;;
25231;SDS011;13176;51.140;6.290;2022-11-27T03:01:56;14.77;;;10.98;;
25231;SDS011;13176;51.140;6.290;2022-11-27T03:04:28;12.07;;;10.90;;
25231;SDS011;13176;51.140;6.290;2022-11-27T03:07:00;15.25;;;11.93;;
25231;SDS011;13176;51.140;6.290;2022-11-27T03:09:38;12.73;;;11.43;;
25231;SDS011;13176;51.140;6.290;2022-11-27T03:12:08;13.32;;;12.13;;
25231;SDS011;13176;51.140;6.290;2022-11-27T03:14:40;13.50;;;12.15;;
25231;SDS011;13176;51.140;6.290;2022-11-27T03:20:13;12.23;;;11.13;;
25231;SDS011;13176;51.140;6.290;2022-11-27T03:22:56;13.27;;;11.95;;
25231;SDS011;13176;51.140;6.290;2022-11-27T03:25:23;12.52;;;11.15;;
25231;SDS011;13176;51.140;6.290;2022-11-27T03:27:54;13.65;;;12.45;;
25231;SDS011;13176;51.140;6.290;2022-11-27T03:30:26;14.50;;;13.10;;
25231;SDS011;13176;51.140;6.290;2022-11-27T03:32:54;16.50;;;12.77;;
25231;SDS011;13176;51.140;6.290;2022-11-27T03:35:23;13.40;;;12.20;;
25231;SDS011;13176;51.140;6.290;2022-11-27T03:37:52;15.00;;;13.60;;
25231;SDS011;13176;51.140;6.290;2022-11-27T03:40:19;13.73;;;12.32;;
25231;SDS011;13176;51.140;6.290;2022-11-27T03:45:23;14.70;;;12.52;;
25231;SDS011;13176;51.140;6.290;2022-11-27T03:56:36;15.00;;;12.43;;
25231;SDS011;13176;51.140;6.290;2022-11-27T03:59:12;13.50;;;12.10;;
25231;SDS011;13176;51.140;6.290;2022-11-27T04:01:43;12.95;;;11.88;;
25231;SDS011;13176;51.140;6.290;2022-11-27T04:04:10;13.32;;;12.20;;
25231;SDS011;13176;51.140;6.290;2022-11-27T04:06:36;13.25;;;12.02;;
25231;SDS011;13176;51.140;6.290;2022-11-27T04:09:03;17.35;;;12.32;;
25231;SDS011;13176;51.140;6.290;2022-11-27T04:11:29;13.07;;;11.80;;
25231;SDS011;13176;51.140;6.290;2022-11-27T04:13:56;15.20;;;13.50;;
25231;SDS011;13176;51.140;6.290;2022-11-27T04:16:23;13.75;;;12.48;;
25231;SDS011;13176;51.140;6.290;2022-11-27T04:18:49;13.60;;;12.35;;
25231;SDS011;13176;51.140;6.290;2022-11-27T04:21:16;14.45;;;13.05;;
25231;SDS011;13176;51.140;6.290;2022-11-27T04:23:44;16.48;;;11.73;;
25231;SDS011;13176;51.140;6.290;2022-11-27T04:26:10;13.70;;;12.35;;
25231;SDS011;13176;51.140;6.290;2022-11-27T04:28:37;13.05;;;11.85;;
25231;SDS011;13176;51.140;6.290;2022-11-27T04:31:04;13.70;;;12.25;;
25231;SDS011;13176;51.140;6.290;2022-11-27T04:33:30;13.48;;;12.10;;
25231;SDS011;13176;51.140;6.290;2022-11-27T04:35:57;12.60;;;11.48;;
25231;SDS011;13176;51.140;6.290;2022-11-27T04:38:23;13.93;;;12.45;;
25231;SDS011;13176;51.140;6.290;2022-11-27T04:40:50;12.82;;;11.38;;
25231;SDS011;13176;51.140;6.290;2022-11-27T04:43:18;14.18;;;11.40;;
25231;SDS011;13176;51.140;6.290;2022-11-27T04:45:45;12.52;;;11.32;;
25231;SDS011;13176;51.140;6.290;2022-11-27T04:48:11;14.65;;;12.25;;
25231;SDS011;13176;51.140;6.290;2022-11-27T04:50:38;13.02;;;11.35;;
25231;SDS011;13176;51.140;6.290;2022-11-27T04:53:04;12.95;;;11.70;;
25231;SDS011;13176;51.140;6.290;2022-11-27T04:55:31;13.82;;;12.65;;
25231;SDS011;13176;51.140;6.290;2022-11-27T04:57:57;12.48;;;11.20;;
25231;SDS011;13176;51.140;6.290;2022-11-27T05:00:23;12.75;;;11.50;;
25231;SDS011;13176;51.140;6.290;2022-11-27T05:02:50;13.50;;;12.20;;
25231;SDS011;13176;51.140;6.290;2022-11-27T05:05:16;14.43;;;12.27;;
25231;SDS011;13176;51.140;6.290;2022-11-27T05:07:43;13.02;;;11.73;;
25231;SDS011;13176;51.140;6.290;2022-11-27T05:10:10;12.43;;;11.10;;
25231;SDS011;13176;51.140;6.290;2022-11-27T05:12:37;13.95;;;12.50;;
25231;SDS011;13176;51.140;6.290;2022-11-27T05:15:04;13.10;;;11.80;;
25231;SDS011;13176;51.140;6.290;2022-11-27T05:17:30;13.40;;;12.00;;
25231;SDS011;13176;51.140;6.290;2022-11-27T05:19:58;14.07;;;12.70;;
25231;SDS011;13176;51.140;6.290;2022-11-27T05:22:24;13.20;;;11.85;;
25231;SDS011;13176;51.140;6.290;2022-11-27T05:24:50;12.80;;;11.65;;
25231;SDS011;13176;51.140;6.290;2022-11-27T05:27:17;12.90;;;11.77;;
25231;SDS011;13176;51.140;6.290;2022-11-27T05:29:43;13.77;;;12.57;;
25231;SDS011;13176;51.140;6.290;2022-11-27T05:32:10;13.45;;;12.20;;
25231;SDS011;13176;51.140;6.290;2022-11-27T05:34:36;16.83;;;12.40;;
25231;SDS011;13176;51.140;6.290;2022-11-27T05:37:03;13.73;;;12.25;;
25231;SDS011;13176;51.140;6.290;2022-11-27T05:39:30;15.10;;;12.18;;
25231;SDS011;13176;51.140;6.290;2022-11-27T05:41:56;16.05;;;12.38;;
25231;SDS011;13176;51.140;6.290;2022-11-27T05:44:22;13.73;;;12.02;;
25231;SDS011;13176;51.140;6.290;2022-11-27T05:46:49;13.55;;;12.40;;
25231;SDS011;13176;51.140;6.290;2022-11-27T05:49:15;13.45;;;12.15;;
25231;SDS011;13176;51.140;6.290;2022-11-27T05:51:42;13.98;;;12.48;;
25231;SDS011;13176;51.140;6.290;2022-11-27T05:56:42;14.18;;;12.65;;
25231;SDS011;13176;51.140;6.290;2022-11-27T05:59:08;14.85;;;12.27;;
25231;SDS011;13176;51.140;6.290;2022-11-27T06:01:36;12.95;;;11.68;;
25231;SDS011;13176;51.140;6.290;2022-11-27T06:04:02;14.23;;;13.02;;
25231;SDS011;13176;51.140;6.290;2022-11-27T06:06:30;15.07;;;13.60;;
25231;SDS011;13176;51.140;6.290;2022-11-27T06:08:56;14.35;;;12.77;;
25231;SDS011;13176;51.140;6.290;2022-11-27T06:11:23;15.25;;;13.27;;
25231;SDS011;13176;51.140;6.290;2022-11-27T06:13:49;13.13;;;12.02;;
25231;SDS011;13176;51.140;6.290;2022-11-27T06:16:17;13.15;;;12.15;;
25231;SDS011;13176;51.140;6.290;2022-11-27T06:18:49;13.43;;;12.20;;
25231;SDS011;13176;51.140;6.290;2022-11-27T06:21:17;13.18;;;11.93;;
25231;SDS011;13176;51.140;6.290;2022-11-27T06:23:44;15.07;;;12.10;;
25231;SDS011;13176;51.140;6.290;2022-11-27T06:26:12;14.00;;;12.73;;
25231;SDS011;13176;51.140;6.290;2022-11-27T06:28:39;13.23;;;12.13;;
25231;SDS011;13176;51.140;6.290;2022-11-27T06:31:06;13.88;;;12.75;;
25231;SDS011;13176;51.140;6.290;2022-11-27T06:33:42;13.48;;;12.20;;
25231;SDS011;13176;51.140;6.290;2022-11-27T06:36:09;14.20;;;12.65;;
25231;SDS011;13176;51.140;6.290;2022-11-27T06:38:36;15.50;;;12.73;;
25231;SDS011;13176;51.140;6.290;2022-11-27T06:41:04;14.68;;;13.27;;
25231;SDS011;13176;51.140;6.290;2022-11-27T06:43:35;14.88;;;13.45;;
25231;SDS011;13176;51.140;6.290;2022-11-27T06:46:02;13.75;;;12.55;;
25231;SDS011;13176;51.140;6.290;2022-11-27T06:48:30;14.30;;;12.48;;
25231;SDS011;13176;51.140;6.290;2022-11-27T06:50:58;18.15;;;12.50;;
25231;SDS011;13176;51.140;6.290;2022-11-27T06:53:28;15.60;;;13.52;;
25231;SDS011;13176;51.140;6.290;2022-11-27T06:55:55;15.77;;;12.73;;
25231;SDS011;13176;51.140;6.290;2022-11-27T06:58:22;14.38;;;13.10;;
25231;SDS011;13176;51.140;6.290;2022-11-27T07:00:56;14.50;;;13.20;;
25231;SDS011;13176;51.140;6.290;2022-11-27T07:03:24;13.88;;;12.60;;
25231;SDS011;13176;51.140;6.290;2022-11-27T07:05:51;17.77;;;13.50;;
25231;SDS011;13176;51.140;6.290;2022-11-27T07:08:17;14.73;;;13.50;;
25231;SDS011;13176;51.140;6.290;2022-11-27T07:10:44;13.95;;;12.90;;
25231;SDS011;13176;51.140;6.290;2022-11-27T07:13:10;15.70;;;13.10;;
25231;SDS011;13176;51.140;6.290;2022-11-27T07:15:38;14.77;;;13.27;;
25231;SDS011;13176;51.140;6.290;2022-11-27T07:18:04;14.27;;;13.07;;
25231;SDS011;13176;51.140;6.290;2022-11-27T07:20:31;14.07;;;12.93;;
25231;SDS011;13176;51.140;6.290;2022-11-27T07:22:57;15.98;;;14.00;;
25231;SDS011;13176;51.140;6.290;2022-11-27T07:25:24;13.57;;;12.57;;
25231;SDS011;13176;51.140;6.290;2022-11-27T07:27:50;14.57;;;13.35;;
25231;SDS011;13176;51.140;6.290;2022-11-27T07:30:17;14.40;;;13.27;;
25231;SDS011;13176;51.140;6.290;2022-11-27T07:32:46;13.60;;;12.25;;
25231;SDS011;13176;51.140;6.290;2022-11-27T07:35:12;14.40;;;13.10;;
25231;SDS011;13176;51.140;6.290;2022-11-27T07:37:39;14.10;;;12.70;;
25231;SDS011;13176;51.140;6.290;2022-11-27T07:40:05;14.50;;;12.70;;
25231;SDS011;13176;51.140;6.290;2022-11-27T07:42:32;14.45;;;13.07;;
25231;SDS011;13176;51.140;6.290;2022-11-27T07:45:04;13.75;;;12.50;;
25231;SDS011;13176;51.140;6.290;2022-11-27T07:47:31;14.18;;;12.77;;
25231;SDS011;13176;51.140;6.290;2022-11-27T07:49:58;13.48;;;12.43;;
25231;SDS011;13176;51.140;6.290;2022-11-27T07:52:25;13.93;;;12.70;;
25231;SDS011;13176;51.140;6.290;2022-11-27T07:54:52;12.45;;;11.57;;
25231;SDS011;13176;51.140;6.290;2022-11-27T07:57:19;13.50;;;12.27;;
25231;SDS011;13176;51.140;6.290;2022-11-27T07:59:45;13.40;;;12.20;;
25231;SDS011;13176;51.140;6.290;2022-11-27T08:02:13;13.73;;;12.35;;
25231;SDS011;13176;51.140;6.290;2022-11-27T08:04:40;13.35;;;11.93;;
25231;SDS011;13176;51.140;6.290;2022-11-27T08:07:09;13.20;;;12.10;;
25231;SDS011;13176;51.140;6.290;2022-11-27T08:09:35;13.20;;;12.07;;
25231;SDS011;13176;51.140;6.290;2022-11-27T08:12:03;12.93;;;11.88;;
25231;SDS011;13176;51.140;6.290;2022-11-27T08:14:30;12.93;;;11.82;;
25231;SDS011;13176;51.140;6.290;2022-11-27T08:16:56;12.82;;;11.63;;
25231;SDS011;13176;51.140;6.290;2022-11-27T08:19:23;12.75;;;11.70;;
25231;SDS011;13176;51.140;6.290;2022-11-27T08:21:49;12.88;;;11.77;;
25231;SDS011;13176;51.140;6.290;2022-11-27T08:24:16;11.50;;;10.68;;
25231;SDS011;13176;51.140;6.290;2022-11-27T08:26:42;13.50;;;11.18;;
25231;SDS011;13176;51.140;6.290;2022-11-27T08:29:10;12.00;;;10.70;;
25231;SDS011;13176;51.140;6.290;2022-11-27T08:31:37;13.25;;;12.05;;
25231;SDS011;13176;51.140;6.290;2022-11-27T08:34:04;11.57;;;10.68;;
25231;SDS011;13176;51.140;6.290;2022-11-27T08:36:31;11.82;;;10.70;;
25231;SDS011;13176;51.140;6.290;2022-11-27T08:38:57;12.45;;;11.55;;
25231;SDS011;13176;51.140;6.290;2022-11-27T08:41:23;12.27;;;11.25;;
25231;SDS011;13176;51.140;6.290;2022-11-27T08:43:50;12.20;;;11.15;;
25231;SDS011;13176;51.140;6.290;2022-11-27T08:46:16;12.48;;;11.48;;
25231;SDS011;13176;51.140;6.290;2022-11-27T08:48:43;12.30;;;11.30;;
25231;SDS011;13176;51.140;6.290;2022-11-27T08:51:11;11.85;;;10.77;;
25231;SDS011;13176;51.140;6.290;2022-11-27T08:53:40;11.95;;;10.93;;
25231;SDS011;13176;51.140;6.290;2022-11-27T08:56:11;12.77;;;11.68;;
25231;SDS011;13176;51.140;6.290;2022-11-27T08:58:47;11.70;;;10.60;;
25231;SDS011;13176;51.140;6.290;2022-11-27T09:01:15;12.10;;;11.10;;
25231;SDS011;13176;51.140;6.290;2022-11-27T09:04:00;11.68;;;10.77;;
25231;SDS011;13176;51.140;6.290;2022-11-27T09:06:29;12.60;;;11.60;;
25231;SDS011;13176;51.140;6.290;2022-11-27T09:08:57;13.00;;;11.85;;
25231;SDS011;13176;51.140;6.290;2022-11-27T09:11:25;11.95;;;10.82;;
25231;SDS011;13176;51.140;6.290;2022-11-27T09:13:54;11.30;;;10.55;;
25231;SDS011;13176;51.140;6.290;2022-11-27T09:16:20;12.00;;;11.07;;
25231;SDS011;13176;51.140;6.290;2022-11-27T09:18:48;12.15;;;11.15;;
25231;SDS011;13176;51.140;6.290;2022-11-27T09:21:17;11.63;;;10.73;;
25231;SDS011;13176;51.140;6.290;2022-11-27T09:23:45;12.50;;;11.40;;
25231;SDS011;13176;51.140;6.290;2022-11-27T09:26:13;12.15;;;11.20;;
25231;SDS011;13176;51.140;6.290;2022-11-27T09:28:41;12.05;;;11.00;;
25231;SDS011;13176;51.140;6.290;2022-11-27T09:31:09;12.32;;;11.30;;
25231;SDS011;13176;51.140;6.290;2022-11-27T09:33:38;11.35;;;10.60;;
25231;SDS011;13176;51.140;6.290;2022-11-27T09:36:06;12.27;;;11.23;;
25231;SDS011;13176;51.140;6.290;2022-11-27T09:38:40;11.98;;;10.65;;
25231;SDS011;13176;51.140;6.290;2022-11-27T09:43:41;12.82;;;11.38;;
25231;SDS011;13176;51.140;6.290;2022-11-27T09:46:16;11.35;;;10.35;;
25231;SDS011;13176;51.140;6.290;2022-11-27T09:48:51;11.43;;;10.50;;
25231;SDS011;13176;51.140;6.290;2022-11-27T09:51:24;11.73;;;10.82;;
25231;SDS011;13176;51.140;6.290;2022-11-27T09:54:04;12.40;;;11.32;;
25231;SDS011;13176;51.140;6.290;2022-11-27T09:56:33;12.55;;;11.50;;
25231;SDS011;13176;51.140;6.290;2022-11-27T09:59:00;14.68;;;13.48;;
25231;SDS011;13176;51.140;6.290;2022-11-27T10:01:29;13.23;;;12.27;;
25231;SDS011;13176;51.140;6.290;2022-11-27T10:04:05;13.80;;;12.52;;
25231;SDS011;13176;51.140;6.290;2022-11-27T10:06:44;12.90;;;11.85;;
25231;SDS011;13176;51.140;6.290;2022-11-27T10:12:53;12.52;;;11.55;;
25231;SDS011;13176;51.140;6.290;2022-11-27T10:18:18;12.57;;;11.55;;
25231;SDS011;13176;51.140;6.290;2022-11-27T10:21:26;11.85;;;10.95;;
25231;SDS011;13176;51.140;6.290;2022-11-27T10:26:47;12.90;;;11.85;;
25231;SDS011;13176;51.140;6.290;2022-11-27T10:31:56;12.60;;;11.38;;
25231;SDS011;13176;51.140;6.290;2022-11-27T10:34:30;12.65;;;11.70;;
25231;SDS011;13176;51.140;6.290;2022-11-27T10:37:10;12.02;;;11.05;;
25231;SDS011;13176;51.140;6.290;2022-11-27T10:39:43;11.90;;;10.80;;
25231;SDS011;13176;51.140;6.290;2022-11-27T10:44:41;11.13;;;10.23;;
25231;SDS011;13176;51.140;6.290;2022-11-27T10:47:12;12.65;;;11.38;;
25231;SDS011;13176;51.140;6.290;2022-11-27T10:49:40;11.43;;;10.32;;
25231;SDS011;13176;51.140;6.290;2022-11-27T10:52:15;11.50;;;10.50;;
25231;SDS011;13176;51.140;6.290;2022-11-27T10:54:44;11.23;;;10.32;;
25231;SDS011;13176;51.140;6.290;2022-11-27T10:57:31;11.15;;;10.20;;
25231;SDS011;13176;51.140;6.290;2022-11-27T11:00:08;12.38;;;11.18;;
25231;SDS011;13176;51.140;6.290;2022-11-27T11:02:40;11.20;;;10.02;;
25231;SDS011;13176;51.140;6.290;2022-11-27T11:05:23;11.38;;;10.27;;
25231;SDS011;13176;51.140;6.290;2022-11-27T11:08:15;10.50;;;9.70;;
25231;SDS011;13176;51.140;6.290;2022-11-27T11:13:23;12.13;;;10.85;;
25231;SDS011;13176;51.140;6.290;2022-11-27T11:18:32;11.60;;;10.60;;
25231;SDS011;13176;51.140;6.290;2022-11-27T11:21:04;10.13;;;9.35;;
25231;SDS011;13176;51.140;6.290;2022-11-27T11:23:33;10.57;;;9.77;;
25231;SDS011;13176;51.140;6.290;2022-11-27T11:26:03;10.07;;;9.30;;
25231;SDS011;13176;51.140;6.290;2022-11-27T11:28:34;8.23;;;7.65;;
25231;SDS011;13176;51.140;6.290;2022-11-27T11:31:12;9.20;;;8.43;;
25231;SDS011;13176;51.140;6.290;2022-11-27T11:33:51;8.35;;;7.75;;
25231;SDS011;13176;51.140;6.290;2022-11-27T11:36:22;8.25;;;7.75;;
25231;SDS011;13176;51.140;6.290;2022-11-27T11:38:48;10.63;;;9.32;;
25231;SDS011;13176;51.140;6.290;2022-11-27T11:41:16;8.98;;;8.07;;
25231;SDS011;13176;51.140;6.290;2022-11-27T11:43:55;8.65;;;8.05;;
25231;SDS011;13176;51.140;6.290;2022-11-27T11:46:28;11.18;;;9.15;;
25231;SDS011;13176;51.140;6.290;2022-11-27T11:48:58;10.00;;;9.23;;
25231;SDS011;13176;51.140;6.290;2022-11-27T11:51:30;10.50;;;9.60;;
25231;SDS011;13176;51.140;6.290;2022-11-27T11:56:59;9.35;;;8.75;;
25231;SDS011;13176;51.140;6.290;2022-11-27T12:04:55;8.93;;;8.32;;
25231;SDS011;13176;51.140;6.290;2022-11-27T12:07:46;9.38;;;8.68;;
25231;SDS011;13176;51.140;6.290;2022-11-27T12:13:03;8.65;;;8.02;;
25231;SDS011;13176;51.140;6.290;2022-11-27T12:18:25;9.20;;;8.48;;
25231;SDS011;13176;51.140;6.290;2022-11-27T12:21:18;8.13;;;7.32;;
25231;SDS011;13176;51.140;6.290;2022-11-27T12:24:02;8.68;;;7.97;;
25231;SDS011;13176;51.140;6.290;2022-11-27T12:26:50;8.05;;;7.45;;
25231;SDS011;13176;51.140;6.290;2022-11-27T12:29:41;8.25;;;7.65;;
25231;SDS011;13176;51.140;6.290;2022-11-27T12:32:27;10.80;;;8.30;;
25231;SDS011;13176;51.140;6.290;2022-11-27T12:38:03;8.82;;;8.23;;
25231;SDS011;13176;51.140;6.290;2022-11-27T12:43:34;10.07;;;9.32;;
25231;SDS011;13176;51.140;6.290;2022-11-27T12:46:09;9.82;;;9.13;;
25231;SDS011;13176;51.140;6.290;2022-11-27T12:49:09;9.50;;;8.68;;
25231;SDS011;13176;51.140;6.290;2022-11-27T12:51:46;8.90;;;8.30;;
25231;SDS011;13176;51.140;6.290;2022-11-27T12:54:21;9.75;;;9.00;;
25231;SDS011;13176;51.140;6.290;2022-11-27T12:57:17;8.38;;;7.80;;
25231;SDS011;13176;51.140;6.290;2022-11-27T12:59:50;9.18;;;8.65;;
25231;SDS011;13176;51.140;6.290;2022-11-27T13:05:40;8.88;;;8.18;;
25231;SDS011;13176;51.140;6.290;2022-11-27T13:08:22;10.05;;;8.77;;
25231;SDS011;13176;51.140;6.290;2022-11-27T13:11:17;9.40;;;8.90;;
25231;SDS011;13176;51.140;6.290;2022-11-27T13:13:51;10.05;;;9.23;;
25231;SDS011;13176;51.140;6.290;2022-11-27T13:16:33;10.20;;;9.52;;
25231;SDS011;13176;51.140;6.290;2022-11-27T13:19:49;9.73;;;8.95;;
25231;SDS011;13176;51.140;6.290;2022-11-27T13:21:54;10.98;;;10.23;;
25231;SDS011;13176;51.140;6.290;2022-11-27T13:24:24;9.68;;;9.10;;
25231;SDS011;13176;51.140;6.290;2022-11-27T13:26:55;10.70;;;9.90;;
25231;SDS011;13176;51.140;6.290;2022-11-27T13:29:30;10.27;;;9.48;;
25231;SDS011;13176;51.140;6.290;2022-11-27T13:32:04;9.77;;;9.07;;
25231;SDS011;13176;51.140;6.290;2022-11-27T13:34:33;9.23;;;8.48;;
25231;SDS011;13176;51.140;6.290;2022-11-27T13:37:09;10.73;;;9.88;;
25231;SDS011;13176;51.140;6.290;2022-11-27T13:39:57;9.93;;;9.13;;
25231;SDS011;13176;51.140;6.290;2022-11-27T13:42:44;10.48;;;9.68;;
25231;SDS011;13176;51.140;6.290;2022-11-27T13:45:20;10.38;;;9.52;;
25231;SDS011;13176;51.140;6.290;2022-11-27T13:47:51;10.98;;;10.15;;
25231;SDS011;13176;51.140;6.290;2022-11-27T13:50:18;10.75;;;9.90;;
25231;SDS011;13176;51.140;6.290;2022-11-27T13:52:56;12.70;;;11.43;;
25231;SDS011;13176;51.140;6.290;2022-11-27T13:55:26;10.90;;;10.00;;
25231;SDS011;13176;51.140;6.290;2022-11-27T13:58:04;11.68;;;10.63;;
25231;SDS011;13176;51.140;6.290;2022-11-27T14:00:36;10.88;;;10.07;;
25231;SDS011;13176;51.140;6.290;2022-11-27T14:03:05;12.80;;;11.32;;
25231;SDS011;13176;51.140;6.290;2022-11-27T14:05:37;11.43;;;10.35;;
25231;SDS011;13176;51.140;6.290;2022-11-27T14:08:13;11.18;;;10.27;;
25231;SDS011;13176;51.140;6.290;2022-11-27T14:10:49;11.38;;;10.48;;
25231;SDS011;13176;51.140;6.290;2022-11-27T14:13:31;11.20;;;10.40;;
25231;SDS011;13176;51.140;6.290;2022-11-27T14:16:00;12.15;;;11.15;;
25231;SDS011;13176;51.140;6.290;2022-11-27T14:18:29;11.20;;;10.45;;
25231;SDS011;13176;51.140;6.290;2022-11-27T14:21:00;12.13;;;11.27;;
25231;SDS011;13176;51.140;6.290;2022-11-27T14:26:06;12.52;;;11.30;;
25231;SDS011;13176;51.140;6.290;2022-11-27T14:28:47;12.57;;;11.57;;
25231;SDS011;13176;51.140;6.290;2022-11-27T14:31:19;12.60;;;11.60;;
25231;SDS011;13176;51.140;6.290;2022-11-27T14:33:58;11.95;;;11.05;;
25231;SDS011;13176;51.140;6.290;2022-11-27T14:36:50;12.75;;;11.85;;
25231;SDS011;13176;51.140;6.290;2022-11-27T14:39:20;13.80;;;11.85;;
25231;SDS011;13176;51.140;6.290;2022-11-27T14:41:56;11.20;;;10.45;;
25231;SDS011;13176;51.140;6.290;2022-11-27T14:44:35;15.43;;;11.73;;
25231;SDS011;13176;51.140;6.290;2022-11-27T14:47:02;11.85;;;10.98;;
25231;SDS011;13176;51.140;6.290;2022-11-27T14:49:31;13.88;;;12.43;;
25231;SDS011;13176;51.140;6.290;2022-11-27T14:52:00;12.48;;;11.60;;
25231;SDS011;13176;51.140;6.290;2022-11-27T14:54:36;12.57;;;11.40;;
25231;SDS011;13176;51.140;6.290;2022-11-27T14:59:31;11.07;;;10.02;;
25231;SDS011;13176;51.140;6.290;2022-11-27T15:04:25;12.27;;;11.38;;
25231;SDS011;13176;51.140;6.290;2022-11-27T15:06:54;12.45;;;11.60;;
25231;SDS011;13176;51.140;6.290;2022-11-27T15:09:23;13.07;;;11.88;;
25231;SDS011;13176;51.140;6.290;2022-11-27T15:12:14;13.00;;;12.00;;
25231;SDS011;13176;51.140;6.290;2022-11-27T15:14:44;12.00;;;11.10;;
25231;SDS011;13176;51.140;6.290;2022-11-27T15:17:15;12.48;;;11.57;;
25231;SDS011;13176;51.140;6.290;2022-11-27T15:19:50;11.57;;;10.63;;
25231;SDS011;13176;51.140;6.290;2022-11-27T15:22:19;12.43;;;11.52;;
25231;SDS011;13176;51.140;6.290;2022-11-27T15:24:56;12.38;;;11.48;;
25231;SDS011;13176;51.140;6.290;2022-11-27T15:27:24;12.88;;;11.90;;
25231;SDS011;13176;51.140;6.290;2022-11-27T15:32:18;12.60;;;11.55;;
25231;SDS011;13176;51.140;6.290;2022-11-27T15:34:50;12.48;;;11.57;;
25231;SDS011;13176;51.140;6.290;2022-11-27T15:39:52;11.68;;;10.77;;
25231;SDS011;13176;51.140;6.290;2022-11-27T15:42:20;11.52;;;10.73;;
25231;SDS011;13176;51.140;6.290;2022-11-27T15:44:48;11.23;;;10.40;;
25231;SDS011;13176;51.140;6.290;2022-11-27T15:47:31;11.80;;;11.00;;
25231;SDS011;13176;51.140;6.290;2022-11-27T15:50:00;11.13;;;10.32;;
25231;SDS011;13176;51.140;6.290;2022-11-27T15:52:27;10.45;;;9.65;;
25231;SDS011;13176;51.140;6.290;2022-11-27T15:54:54;11.52;;;10.70;;
25231;SDS011;13176;51.140;6.290;2022-11-27T15:57:23;10.68;;;9.90;;
25231;SDS011;13176;51.140;6.290;2022-11-27T15:59:51;11.18;;;10.27;;
25231;SDS011;13176;51.140;6.290;2022-11-27T16:02:17;10.07;;;9.43;;
25231;SDS011;13176;51.140;6.290;2022-11-27T16:04:44;9.60;;;9.00;;
25231;SDS011;13176;51.140;6.290;2022-11-27T16:07:10;10.80;;;10.07;;
25231;SDS011;13176;51.140;6.290;2022-11-27T16:09:37;10.75;;;10.15;;
25231;SDS011;13176;51.140;6.290;2022-11-27T16:12:04;11.88;;;10.93;;
25231;SDS011;13176;51.140;6.290;2022-11-27T16:14:31;10.10;;;9.50;;
25231;SDS011;13176;51.140;6.290;2022-11-27T16:16:58;11.05;;;10.25;;